Time;durP1;ratioP1;P1;durP2;ratioP2;P2;SDS_P1;SDS_P2;PMS_P1;PMS_P2;Temp;Humidity;BMP_temperature;BMP_pressure;BME280_temperature;BME280_humidity;BME280_pressure;Samples;Min_cycle;Max_cycle;Signal;HPM_P1;HPM_P2
2022/08/21 00:01:41;;;;;;;5.18;2.45;;;14.70;36.50;;;;;;5124721;28;20457;-88
2022/08/21 00:04:31;;;;;;;4.25;2.35;;;14.70;44.60;;;;;;5102738;28;20133;-87
2022/08/21 00:07:19;;;;;;;4.07;2.47;;;14.60;55.60;;;;;;5094270;28;20039;-87
2022/08/21 00:10:12;;;;;;;5.93;2.55;;;14.60;65.90;;;;;;5100394;28;20090;-88
2022/08/21 00:13:03;;;;;;;5.32;2.20;;;14.60;76.40;;;;;;5106973;28;20047;-87
2022/08/21 00:15:51;;;;;;;5.30;2.58;;;14.60;85.90;;;;;;5105934;28;20047;-87
2022/08/21 00:18:38;;;;;;;6.20;2.55;;;14.50;92.60;;;;;;5113665;28;20144;-88
2022/08/21 00:21:28;;;;;;;7.18;2.70;;;14.40;98.20;;;;;;5107023;28;20491;-88
2022/08/21 00:24:17;;;;;;;4.65;2.60;;;14.30;99.90;;;;;;5102247;28;20055;-87
2022/08/21 00:27:05;;;;;;;4.72;2.58;;;14.30;99.90;;;;;;5107149;28;20093;-87
2022/08/21 00:29:53;;;;;;;4.97;2.80;;;14.20;99.90;;;;;;5100470;28;20085;-87
2022/08/21 00:32:41;;;;;;;6.55;2.72;;;14.20;99.90;;;;;;5112654;28;20043;-89
2022/08/21 00:35:36;;;;;;;8.27;2.70;;;14.10;99.90;;;;;;5107459;28;20057;-87
2022/08/21 00:38:26;;;;;;;4.03;2.25;;;14.00;99.90;;;;;;5091465;28;20047;-89
2022/08/21 00:41:13;;;;;;;7.30;2.80;;;14.00;99.90;;;;;;5094074;28;20105;-88
2022/08/21 00:44:21;;;;;;;4.63;2.58;;;14.00;99.90;;;;;;5105485;28;20134;-87
2022/08/21 00:47:09;;;;;;;9.98;2.63;;;13.90;99.90;;;;;;5108771;28;20418;-86
2022/08/21 00:49:56;;;;;;;4.35;2.90;;;13.90;99.90;;;;;;5113928;28;20112;-87
2022/08/21 00:52:44;;;;;;;8.52;2.85;;;13.80;99.90;;;;;;5104687;28;20408;-87
2022/08/21 00:55:36;;;;;;;4.78;2.90;;;13.80;99.90;;;;;;5115466;28;20063;-86
2022/08/21 00:58:27;;;;;;;5.60;2.55;;;13.90;99.90;;;;;;5118881;28;20067;-89
2022/08/21 01:01:18;;;;;;;4.90;2.90;;;13.90;99.90;;;;;;5098861;28;20100;-87
2022/08/21 01:04:07;;;;;;;6.03;2.85;;;13.90;99.90;;;;;;5116489;27;20084;-87
2022/08/21 01:06:57;;;;;;;4.10;2.67;;;13.90;99.90;;;;;;5106274;28;20055;-87
2022/08/21 01:09:47;;;;;;;3.40;2.67;;;14.00;99.90;;;;;;5097848;28;20486;-87
2022/08/21 01:12:35;;;;;;;8.73;2.72;;;13.90;99.90;;;;;;5112632;27;20420;-86
2022/08/21 01:15:26;;;;;;;5.70;2.70;;;14.00;99.90;;;;;;5113029;27;20434;-87
2022/08/21 01:18:18;;;;;;;5.25;2.58;;;14.00;99.90;;;;;;5110915;28;20067;-86
2022/08/21 01:21:18;;;;;;;7.18;2.90;;;13.90;99.90;;;;;;5117362;27;20058;-88
2022/08/21 01:24:05;;;;;;;9.07;3.10;;;13.80;99.90;;;;;;5111454;28;20079;-86
2022/08/21 01:26:55;;;;;;;6.38;2.95;;;13.70;99.90;;;;;;5081240;28;20063;-87
2022/08/21 01:29:51;;;;;;;4.47;3.13;;;13.70;99.90;;;;;;5102561;28;20124;-89
2022/08/21 01:32:42;;;;;;;6.43;2.92;;;13.60;99.90;;;;;;5114121;28;20077;-88
2022/08/21 01:35:29;;;;;;;4.65;2.92;;;13.60;99.90;;;;;;5104425;27;20101;-89
2022/08/21 01:38:17;;;;;;;4.47;2.67;;;13.60;99.90;;;;;;5099647;28;20044;-87
2022/08/21 01:41:04;;;;;;;8.27;3.45;;;13.60;99.90;;;;;;5112522;28;20055;-88
2022/08/21 01:43:52;;;;;;;6.55;3.05;;;13.50;1.00;;;;;;5110018;28;20093;-89
2022/08/21 01:46:39;;;;;;;7.60;2.90;;;13.50;1.00;;;;;;5106683;28;20588;-89
2022/08/21 01:49:26;;;;;;;4.88;2.80;;;13.40;1.00;;;;;;5104291;28;20520;-89
2022/08/21 01:52:13;;;;;;;5.40;3.30;;;13.40;1.00;;;;;;5109332;28;20035;-89
2022/08/21 01:55:01;;;;;;;7.38;3.20;;;13.30;67.30;;;;;;5123135;27;20043;-89
2022/08/21 01:57:48;;;;;;;7.15;3.72;;;13.10;99.90;;;;;;5109516;28;20530;-88
2022/08/21 02:00:35;;;;;;;7.47;3.42;;;13.00;99.90;;;;;;5113060;28;20047;-88
2022/08/21 02:03:23;;;;;;;7.03;3.20;;;12.90;99.90;;;;;;5108078;28;20492;-90
2022/08/21 02:06:21;;;;;;;6.53;3.15;;;12.90;99.90;;;;;;5096599;28;20047;-89
2022/08/21 02:09:21;;;;;;;7.72;3.20;;;12.90;1.00;;;;;;5109790;28;20056;-89
2022/08/21 02:12:11;;;;;;;6.45;2.95;;;12.90;1.00;;;;;;5086258;28;20061;-88
2022/08/21 02:14:58;;;;;;;8.05;3.50;;;12.90;1.00;;;;;;5112219;27;20446;-90
2022/08/21 02:17:53;;;;;;;5.35;3.67;;;12.80;1.00;;;;;;5097104;28;20131;-89
2022/08/21 02:20:44;;;;;;;5.97;3.42;;;12.80;1.00;;;;;;5093178;28;20058;-89
2022/08/21 02:23:32;;;;;;;9.95;4.32;;;12.70;99.90;;;;;;5104575;28;20340;-88
2022/08/21 02:26:20;;;;;;;10.23;4.35;;;12.80;99.90;;;;;;5101805;28;20479;-89
2022/08/21 02:29:10;;;;;;;6.78;3.70;;;12.80;99.90;;;;;;5113292;28;20044;-88
2022/08/21 02:31:57;;;;;;;8.00;3.90;;;12.80;79.10;;;;;;5107321;28;20071;-88
2022/08/21 02:34:46;;;;;;;5.30;2.95;;;12.80;72.70;;;;;;5097038;28;20043;-90
2022/08/21 02:37:52;;;;;;;9.23;3.72;;;12.80;99.90;;;;;;5105478;28;20043;-89
2022/08/21 02:40:45;;;;;;;7.57;3.97;;;12.80;99.90;;;;;;5106361;28;20047;-89
2022/08/21 02:43:36;;;;;;;6.25;3.45;;;12.70;99.90;;;;;;5107371;28;20052;-89
2022/08/21 02:46:24;;;;;;;6.65;3.55;;;12.60;99.90;;;;;;5101084;28;20411;-89
2022/08/21 02:49:11;;;;;;;6.70;3.47;;;12.50;22.50;;;;;;5104041;28;20466;-89
2022/08/21 02:51:58;;;;;;;6.55;3.60;;;12.40;99.90;;;;;;5098750;28;20031;-88
2022/08/21 02:54:48;;;;;;;10.23;4.13;;;12.40;1.00;;;;;;5119724;27;20047;-89
2022/08/21 02:57:37;;;;;;;7.70;3.65;;;12.30;99.90;;;;;;5103754;27;20443;-88
2022/08/21 03:00:29;;;;;;;6.60;3.80;;;12.30;1.00;;;;;;5087813;28;20428;-89
2022/08/21 03:03:20;;;;;;;8.82;4.13;;;12.30;1.00;;;;;;5100584;27;20051;-88
2022/08/21 03:06:14;;;;;;;15.02;3.95;;;12.30;38.30;;;;;;5114697;27;20054;-88
2022/08/21 03:09:03;;;;;;;5.03;3.50;;;12.30;26.60;;;;;;5082560;28;20046;-89
2022/08/21 03:11:54;;;;;;;6.07;4.13;;;12.20;1.00;;;;;;5086589;28;20447;-83
2022/08/21 03:14:52;;;;;;;6.95;4.07;;;12.10;99.90;;;;;;5095656;27;20107;-87
2022/08/21 03:17:44;;;;;;;13.43;4.32;;;12.00;74.50;;;;;;5100144;28;20084;-88
2022/08/21 03:21:00;;;;;;;5.28;4.13;;;12.00;99.90;;;;;;5094925;28;20497;-87
2022/08/21 03:24:14;;;;;;;5.50;4.32;;;12.00;99.90;;;;;;5082789;28;20188;-88
2022/08/21 03:27:27;;;;;;;12.40;4.55;;;12.00;1.00;;;;;;5097372;28;20047;-88
2022/08/21 03:30:23;;;;;;;7.95;4.68;;;11.90;1.00;;;;;;5103272;28;20044;-89
2022/08/21 03:33:21;;;;;;;6.22;3.90;;;11.80;26.60;;;;;;5102639;27;20088;-88
2022/08/21 03:36:24;;;;;;;11.20;4.72;;;11.70;99.90;;;;;;5089869;28;20040;-89
2022/08/21 03:39:16;;;;;;;12.68;4.43;;;11.70;1.00;;;;;;5112999;28;20130;-89
2022/08/21 03:42:13;;;;;;;7.88;4.85;;;11.80;1.00;;;;;;5097872;28;20039;-89
2022/08/21 03:45:02;;;;;;;6.05;4.28;;;11.80;1.00;;;;;;5098287;28;20054;-88
2022/08/21 03:47:55;;;;;;;6.25;4.68;;;11.80;1.00;;;;;;5110720;28;20499;-88
2022/08/21 03:50:47;;;;;;;7.53;4.60;;;11.80;1.00;;;;;;5106436;28;20126;-87
2022/08/21 03:53:37;;;;;;;6.22;4.45;;;11.80;1.00;;;;;;5110778;28;20039;-89
2022/08/21 03:56:24;;;;;;;6.55;4.20;;;11.70;85.40;;;;;;5112759;28;20097;-88
2022/08/21 03:59:16;;;;;;;10.63;5.50;;;11.80;99.90;;;;;;5102742;28;20064;-88
2022/08/21 04:02:06;;;;;;;11.55;5.80;;;11.80;99.90;;;;;;5106294;28;20039;-88
2022/08/21 04:04:56;;;;;;;6.57;5.10;;;11.80;99.90;;;;;;5109505;28;20464;-88
2022/08/21 04:07:45;;;;;;;8.95;5.85;;;11.70;99.90;;;;;;5084860;28;20040;-88
2022/08/21 04:10:35;;;;;;;15.18;7.65;;;11.70;99.90;;;;;;5100712;28;20382;-89
2022/08/21 04:13:22;;;;;;;10.32;6.82;;;11.60;99.90;;;;;;5109186;28;20051;-88
2022/08/21 04:16:09;;;;;;;12.07;6.03;;;11.50;99.90;;;;;;5089631;28;20438;-88
2022/08/21 04:18:59;;;;;;;12.25;6.40;;;11.40;99.90;;;;;;5105421;28;20055;-90
2022/08/21 04:21:46;;;;;;;10.40;6.80;;;11.30;99.90;;;;;;5102142;28;20482;-88
2022/08/21 04:24:35;;;;;;;11.50;6.80;;;11.30;99.90;;;;;;5106503;28;20048;-89
2022/08/21 04:27:22;;;;;;;12.40;6.75;;;11.30;99.90;;;;;;5117633;28;20180;-89
2022/08/21 04:30:16;;;;;;;9.07;6.93;;;11.20;99.90;;;;;;5100642;28;20255;-88
2022/08/21 04:33:03;;;;;;;8.57;6.40;;;11.10;99.90;;;;;;5117693;28;20485;-88
2022/08/21 04:35:52;;;;;;;9.90;6.43;;;11.00;99.90;;;;;;5116536;27;20054;-89
2022/08/21 04:38:39;;;;;;;10.52;6.85;;;10.90;99.90;;;;;;5115906;27;20109;-90
2022/08/21 04:41:30;;;;;;;9.00;6.28;;;10.90;1.00;;;;;;5111860;28;20043;-87
2022/08/21 04:44:18;;;;;;;9.30;6.45;;;10.80;1.00;;;;;;5129180;27;20359;-88
2022/08/21 04:47:08;;;;;;;14.15;8.00;;;10.80;1.00;;;;;;5120598;28;20073;-88
2022/08/21 04:49:55;;;;;;;12.13;7.30;;;10.90;1.00;;;;;;5131958;28;20088;-87
2022/08/21 04:52:43;;;;;;;11.75;7.43;;;11.10;1.00;;;;;;5112513;28;20043;-88
2022/08/21 04:55:31;;;;;;;14.48;7.57;;;11.20;8.20;;;;;;5104834;27;20031;-89
2022/08/21 04:58:26;;;;;;;13.15;7.05;;;11.20;18.00;;;;;;5122971;27;20104;-88
2022/08/21 05:01:17;;;;;;;12.48;7.18;;;11.30;19.80;;;;;;5115330;28;20130;-87
2022/08/21 05:04:08;;;;;;;9.88;6.88;;;11.40;14.60;;;;;;5114579;27;20043;-88
2022/08/21 05:07:00;;;;;;;9.50;6.68;;;11.40;2.90;;;;;;5126424;27;20047;-90
2022/08/21 05:09:47;;;;;;;11.85;6.97;;;11.40;1.00;;;;;;5125726;27;20071;-88
2022/08/21 05:12:35;;;;;;;9.57;6.50;;;11.40;1.00;;;;;;5118930;28;20055;-88
2022/08/21 05:15:22;;;;;;;10.18;6.57;;;11.50;1.00;;;;;;5117035;28;20542;-89
2022/08/21 05:18:10;;;;;;;14.02;6.18;;;11.50;1.00;;;;;;5119507;27;20039;-89
2022/08/21 05:20:58;;;;;;;11.07;6.57;;;11.60;1.00;;;;;;5123512;27;20457;-87
2022/08/21 05:23:45;;;;;;;10.73;5.90;;;11.70;1.00;;;;;;5126102;27;20131;-89
2022/08/21 05:26:33;;;;;;;8.70;6.15;;;11.80;1.00;;;;;;5107775;28;20051;-88
2022/08/21 05:29:31;;;;;;;6.47;5.05;;;12.00;99.90;;;;;;5124674;28;20040;-83
2022/08/21 05:32:18;;;;;;;7.63;5.20;;;12.10;99.90;;;;;;5124403;28;20123;-89
2022/08/21 05:35:07;;;;;;;7.93;5.35;;;12.30;99.90;;;;;;5129621;27;20054;-87
2022/08/21 05:37:55;;;;;;;6.25;4.50;;;12.40;99.90;;;;;;5108008;28;20071;-88
2022/08/21 05:40:46;;;;;;;8.75;4.75;;;12.60;30.10;;;;;;5113417;28;20101;-87
2022/08/21 05:43:35;;;;;;;7.97;4.13;;;12.70;99.90;;;;;;5118667;28;20044;-88
2022/08/21 05:46:23;;;;;;;8.98;4.63;;;12.80;1.00;;;;;;5100896;28;20036;-86
2022/08/21 05:49:11;;;;;;;5.97;4.00;;;13.00;1.00;;;;;;5120261;27;20047;-87
2022/08/21 05:52:03;;;;;;;8.00;3.80;;;13.00;99.90;;;;;;5109042;28;20319;-88
2022/08/21 05:54:53;;;;;;;5.28;3.83;;;13.20;99.90;;;;;;5100333;28;20118;-88
2022/08/21 05:57:41;;;;;;;6.15;4.38;;;13.20;1.00;;;;;;5106720;28;20131;-88
2022/08/21 06:00:31;;;;;;;7.82;4.22;;;13.30;99.90;;;;;;5100934;28;20040;-87
2022/08/21 06:03:22;;;;;;;5.55;4.05;;;13.40;99.90;;;;;;5112484;28;20048;-88
2022/08/21 06:06:09;;;;;;;7.65;3.90;;;13.50;99.90;;;;;;5103764;28;20044;-86
2022/08/21 06:08:56;;;;;;;6.85;3.60;;;13.60;46.00;;;;;;5114053;28;20044;-87
2022/08/21 06:11:44;;;;;;;6.80;3.80;;;13.70;99.90;;;;;;5098299;27;20401;-87
2022/08/21 06:14:32;;;;;;;9.15;3.67;;;13.80;99.90;;;;;;5097776;28;20063;-86
2022/08/21 06:17:19;;;;;;;7.55;3.80;;;14.00;1.00;;;;;;5093473;28;20101;-89
2022/08/21 06:20:07;;;;;;;6.82;4.05;;;14.10;99.90;;;;;;5094580;28;20413;-87
2022/08/21 06:22:54;;;;;;;7.80;3.38;;;14.20;99.90;;;;;;5104300;28;20044;-88
2022/08/21 06:25:44;;;;;;;7.88;3.80;;;14.40;99.90;;;;;;5106559;28;20144;-86
2022/08/21 06:28:36;;;;;;;7.22;3.63;;;14.40;8.30;;;;;;5097291;28;20046;-85
2022/08/21 06:31:27;;;;;;;5.20;3.40;;;14.60;1.00;;;;;;5105984;28;20048;-87
2022/08/21 06:34:15;;;;;;;6.53;3.10;;;14.90;99.90;;;;;;5099256;28;20036;-86
2022/08/21 06:37:02;;;;;;;6.35;3.00;;;15.10;99.90;;;;;;5101971;27;20474;-84
2022/08/21 06:39:50;;;;;;;5.05;2.97;;;15.30;1.80;;;;;;5117472;27;20043;-84
2022/08/21 06:42:38;;;;;;;5.13;3.13;;;15.50;1.00;;;;;;5099014;28;20055;-85
2022/08/21 06:45:28;;;;;;;7.78;3.30;;;15.80;99.90;;;;;;5102519;28;20044;-85
2022/08/21 06:48:18;;;;;;;8.90;3.03;;;16.10;99.90;;;;;;5111504;27;20122;-85
2022/08/21 06:51:09;;;;;;;8.23;2.75;;;16.30;1.00;;;;;;5121000;27;20043;-85
2022/08/21 06:53:56;;;;;;;8.15;3.45;;;16.50;99.90;;;;;;5114491;28;20119;-86
2022/08/21 06:56:46;;;;;;;7.38;3.35;;;16.70;99.90;;;;;;5126651;27;20088;-86
2022/08/21 06:59:33;;;;;;;5.85;2.45;;;17.00;99.90;;;;;;5108040;27;20054;-86
2022/08/21 07:02:23;;;;;;;5.80;2.50;;;17.40;50.30;;;;;;5085806;28;20071;-86
2022/08/21 07:05:12;;;;;;;8.25;2.80;;;18.00;1.00;;;;;;5080289;28;20375;-86
2022/08/21 07:08:06;;;;;;;8.90;3.17;;;18.50;99.90;;;;;;5101198;27;20114;-87
2022/08/21 07:10:59;;;;;;;6.97;2.47;;;19.00;99.90;;;;;;5097716;28;20055;-86
2022/08/21 07:13:52;;;;;;;6.05;2.63;;;19.80;99.90;;;;;;5109703;28;20058;-86
2022/08/21 07:16:41;;;;;;;8.20;2.42;;;20.30;99.90;;;;;;5102465;28;20047;-87
2022/08/21 07:19:29;;;;;;;5.78;2.38;;;20.90;99.90;;;;;;5096031;28;20205;-87
2022/08/21 07:22:19;;;;;;;9.35;2.75;;;21.40;99.90;;;;;;5121494;27;20442;-87
2022/08/21 07:25:07;;;;;;;6.43;2.65;;;21.90;51.70;;;;;;5100600;27;20040;-87
2022/08/21 07:27:55;;;;;;;7.78;2.38;;;22.20;23.00;;;;;;5115437;28;20085;-85
2022/08/21 07:30:42;;;;;;;4.57;2.38;;;22.20;14.70;;;;;;5129080;27;20051;-86
2022/08/21 07:33:33;;;;;;;5.30;2.65;;;22.30;1.00;;;;;;5095830;28;20044;-87
2022/08/21 07:36:21;;;;;;;5.72;2.33;;;22.30;1.00;;;;;;5127715;28;20077;-86
2022/08/21 07:39:08;;;;;;;5.88;2.88;;;22.00;1.00;;;;;;5130352;27;20059;-83
2022/08/21 07:41:57;;;;;;;5.47;2.42;;;21.30;1.00;;;;;;5123295;28;20047;-81
2022/08/21 07:44:44;;;;;;;7.90;2.40;;;21.40;1.00;;;;;;5125341;28;20057;-85
2022/08/21 07:47:32;;;;;;;7.15;2.90;;;22.10;1.00;;;;;;5128736;27;20055;-84
2022/08/21 07:50:34;;;;;;;6.95;2.28;;;22.70;1.00;;;;;;5114415;28;20043;-85
2022/08/21 07:53:21;;;;;;;8.00;3.13;;;22.60;1.00;;;;;;5098008;28;20089;-84
2022/08/21 07:56:11;;;;;;;5.60;2.40;;;22.60;1.00;;;;;;5100126;28;20051;-85
2022/08/21 07:58:59;;;;;;;5.45;2.78;;;22.50;1.00;;;;;;5121309;28;20189;-85
2022/08/21 08:01:46;;;;;;;6.15;2.85;;;22.70;1.00;;;;;;5127308;28;20052;-85
2022/08/21 08:04:33;;;;;;;6.30;2.70;;;23.00;1.00;;;;;;5117359;28;20047;-86
2022/08/21 08:07:23;;;;;;;6.82;2.50;;;23.60;1.00;;;;;;5105727;28;20051;-86
2022/08/21 08:10:11;;;;;;;7.25;2.67;;;24.00;1.00;;;;;;5115683;28;20097;-86
2022/08/21 08:12:58;;;;;;;6.65;2.92;;;24.50;1.00;;;;;;5112310;28;20148;-86
2022/08/21 08:15:46;;;;;;;6.45;2.70;;;25.30;1.00;;;;;;5111671;28;20484;-85
2022/08/21 08:18:33;;;;;;;6.03;2.20;;;25.60;1.00;;;;;;5112279;28;20051;-86
2022/08/21 08:21:22;;;;;;;5.07;2.70;;;26.90;1.00;;;;;;5113247;28;20091;-85
2022/08/21 08:24:09;;;;;;;6.20;2.70;;;26.90;1.00;;;;;;5095676;28;20116;-86
2022/08/21 08:27:05;;;;;;;7.28;2.55;;;26.70;1.00;;;;;;5107531;28;20093;-87
2022/08/21 08:29:53;;;;;;;8.02;3.00;;;27.10;1.00;;;;;;5104299;28;20079;-85
2022/08/21 08:32:41;;;;;;;6.45;2.55;;;26.60;1.00;;;;;;5093637;28;20435;-85
2022/08/21 08:35:29;;;;;;;6.57;2.88;;;26.50;1.00;;;;;;5079957;28;20047;-85
2022/08/21 08:38:21;;;;;;;8.50;3.10;;;26.60;1.00;;;;;;5103529;28;20040;-86
2022/08/21 08:41:21;;;;;;;9.75;2.90;;;26.20;1.00;;;;;;5107365;28;20097;-85
2022/08/21 08:44:08;;;;;;;11.05;3.83;;;25.90;1.00;;;;;;5109125;28;20048;-86
2022/08/21 08:46:57;;;;;;;8.10;2.85;;;25.90;1.00;;;;;;5108267;28;20108;-85
2022/08/21 08:49:56;;;;;;;5.25;2.90;;;26.30;1.00;;;;;;5103425;28;20036;-87
2022/08/21 08:52:57;;;;;;;5.35;2.80;;;27.50;1.00;;;;;;5107250;28;20113;-84
2022/08/21 08:55:45;;;;;;;8.57;2.83;;;28.80;1.00;;;;;;5118206;28;20044;-86
2022/08/21 08:58:39;;;;;;;4.57;2.42;;;29.80;1.00;;;;;;5119849;28;20081;-84
2022/08/21 09:01:26;;;;;;;9.23;3.58;;;29.50;1.00;;;;;;5126305;28;20076;-84
2022/08/21 09:04:28;;;;;;;6.43;2.63;;;29.50;1.00;;;;;;5132425;27;20058;-85
2022/08/21 09:07:39;;;;;;;8.27;2.80;;;28.50;1.00;;;;;;5105316;28;20035;-84
2022/08/21 09:10:53;;;;;;;5.70;2.65;;;28.90;1.00;;;;;;5118856;28;20344;-85
2022/08/21 09:13:59;;;;;;;10.48;3.08;;;29.00;1.00;;;;;;5104052;28;20048;-84
2022/08/21 09:17:09;;;;;;;5.97;2.85;;;28.90;1.00;;;;;;5113170;28;20428;-84
2022/08/21 09:20:03;;;;;;;8.48;2.67;;;28.30;1.00;;;;;;5109541;28;20097;-86
2022/08/21 09:22:56;;;;;;;8.48;2.97;;;28.30;1.00;;;;;;5112377;27;20058;-83
2022/08/21 09:26:19;;;;;;;8.35;2.67;;;28.40;1.00;;;;;;5112072;28;20441;-83
2022/08/21 09:29:10;;;;;;;7.28;2.83;;;28.50;1.00;;;;;;5112721;27;20046;-88
2022/08/21 09:31:58;;;;;;;7.45;3.15;;;28.60;1.00;;;;;;5081025;28;20059;-83
2022/08/21 09:35:04;;;;;;;7.63;2.83;;;30.00;1.00;;;;;;5104855;28;20094;-86
2022/08/21 09:37:59;;;;;;;5.82;2.45;;;29.20;1.00;;;;;;5098756;28;20123;-86
2022/08/21 09:40:55;;;;;;;8.02;2.38;;;29.50;1.00;;;;;;5121475;27;20070;-84
2022/08/21 09:43:54;;;;;;;7.25;2.47;;;30.90;1.00;;;;;;5112265;28;20043;-84
2022/08/21 09:46:51;;;;;;;6.65;2.58;;;31.80;1.00;;;;;;5114005;27;20109;-85
2022/08/21 09:49:40;;;;;;;7.72;2.50;;;32.20;1.00;;;;;;5109001;27;20419;-85
2022/08/21 09:52:28;;;;;;;5.45;2.53;;;31.80;1.00;;;;;;5108401;28;20400;-84
2022/08/21 09:58:35;;;;;;;7.70;2.90;;;32.30;1.00;;;;;;5114054;28;20063;-85
2022/08/21 10:01:25;;;;;;;4.60;2.17;;;29.60;1.00;;;;;;5087304;28;20082;-86
2022/08/21 10:04:20;;;;;;;5.35;2.80;;;28.80;1.00;;;;;;5095517;28;20050;-84
2022/08/21 10:07:14;;;;;;;8.32;2.83;;;29.20;1.00;;;;;;5112563;28;20082;-83
2022/08/21 10:10:21;;;;;;;8.05;2.92;;;29.00;1.00;;;;;;5110747;27;20039;-84
2022/08/21 10:13:44;;;;;;;5.10;2.78;;;29.10;1.00;;;;;;5107750;28;20116;-85
2022/08/21 10:16:43;;;;;;;;;;;30.20;1.00;;;;;;5111879;27;20077;-85
2022/08/21 10:19:49;;;;;;;6.25;2.38;;;31.40;1.00;;;;;;5091334;28;19924;-86
2022/08/21 10:22:39;;;;;;;6.50;2.42;;;31.60;1.00;;;;;;5099838;28;20506;-85
2022/08/21 10:25:31;;;;;;;6.13;2.10;;;31.30;1.00;;;;;;5103049;27;20039;-84
2022/08/21 10:28:36;;;;;;;6.85;2.55;;;32.40;1.00;;;;;;5104075;28;20044;-85
2022/08/21 10:31:24;;;;;;;6.40;2.40;;;33.50;99.90;;;;;;5112693;28;20455;-86
2022/08/21 10:34:20;;;;;;;6.65;2.47;;;34.10;99.90;;;;;;5128747;28;20063;-84
2022/08/21 10:37:21;;;;;;;5.15;2.25;;;35.10;99.90;;;;;;5113767;28;20417;-84
2022/08/21 10:40:31;;;;;;;8.60;2.40;;;35.20;99.90;;;;;;5110100;28;20040;-84
2022/08/21 10:43:30;;;;;;;4.88;2.35;;;35.30;99.90;;;;;;5110404;28;20047;-84
2022/08/21 10:46:39;;;;;;;7.03;2.70;;;34.70;99.90;;;;;;5130093;28;20069;-86
2022/08/21 10:49:35;;;;;;;4.35;2.20;;;35.60;99.90;;;;;;5108121;28;20069;-84
2022/08/21 10:52:36;;;;;;;7.22;2.35;;;35.80;99.90;;;;;;5113083;28;20040;-86
2022/08/21 10:55:48;;;;;;;4.72;2.53;;;32.70;99.90;;;;;;5121269;28;20036;-85
2022/08/21 10:59:04;;;;;;;9.68;2.40;;;30.90;99.90;;;;;;5115333;27;20151;-86
2022/08/21 11:02:03;;;;;;;4.10;2.17;;;31.70;99.90;;;;;;5108241;28;20058;-84
2022/08/21 11:05:10;;;;;;;5.47;2.25;;;32.10;99.90;;;;;;5114382;28;20052;-85
2022/08/21 11:08:22;;;;;;;6.63;2.25;;;32.10;99.90;;;;;;5113823;28;20043;-87
2022/08/21 11:11:15;;;;;;;8.02;2.30;;;33.10;99.90;;;;;;5099657;28;20040;-84
2022/08/21 11:14:27;;;;;;;4.78;2.00;;;32.50;99.90;;;;;;5105368;28;20098;-86
2022/08/21 11:17:21;;;;;;;4.93;1.95;;;32.70;99.90;;;;;;5105576;28;20078;-85
2022/08/21 11:20:27;;;;;;;5.30;2.17;;;32.40;99.90;;;;;;5099807;28;20039;-87
2022/08/21 11:23:24;;;;;;;3.75;2.10;;;32.90;99.90;;;;;;5102512;28;20055;-85
2022/08/21 11:26:21;;;;;;;5.13;2.30;;;32.00;99.90;;;;;;5118967;27;20047;-84
2022/08/21 11:29:27;;;;;;;5.35;2.30;;;32.20;99.90;;;;;;5112685;28;20354;-86
2022/08/21 11:32:39;;;;;;;5.18;2.42;;;33.90;99.90;;;;;;5112227;28;20043;-86
2022/08/21 11:35:33;;;;;;;4.95;2.17;;;35.30;99.90;;;;;;5108067;28;20051;-85
2022/08/21 11:38:27;;;;;;;4.45;1.77;;;36.20;99.90;;;;;;5106743;28;20047;-86
2022/08/21 11:41:42;;;;;;;4.82;1.90;;;34.70;99.90;;;;;;5106402;28;20044;-86
2022/08/21 11:44:45;;;;;;;4.65;2.03;;;34.80;99.90;;;;;;5110072;28;20047;-87
2022/08/21 11:47:56;;;;;;;7.13;2.50;;;34.50;99.90;;;;;;5106162;28;20055;-85
2022/08/21 11:50:45;;;;;;;2.85;1.95;;;34.60;99.90;;;;;;5107137;27;20054;-87
2022/08/21 11:53:52;;;;;;;6.18;2.15;;;34.30;99.90;;;;;;5105622;28;20070;-86
2022/08/21 11:57:03;;;;;;;4.18;2.25;;;33.80;99.90;;;;;;5091470;28;20043;-83
2022/08/21 12:00:04;;;;;;;5.40;1.80;;;33.10;99.90;;;;;;5113801;28;20050;-83
2022/08/21 12:02:58;;;;;;;6.10;2.35;;;32.60;99.90;;;;;;5104495;28;20055;-84
2022/08/21 12:05:55;;;;;;;3.92;2.05;;;33.40;99.90;;;;;;5093644;28;20032;-83
2022/08/21 12:08:45;;;;;;;4.75;2.35;;;32.60;99.90;;;;;;5107388;28;20071;-87
2022/08/21 12:11:46;;;;;;;6.38;2.25;;;33.20;99.90;;;;;;5102269;28;20055;-85
2022/08/21 12:14:44;;;;;;;9.00;3.30;;;33.50;99.90;;;;;;5117936;28;20105;-85
2022/08/21 12:17:40;;;;;;;5.20;2.70;;;32.70;99.90;;;;;;5114207;28;20081;-85
2022/08/21 12:20:45;;;;;;;5.78;2.20;;;31.90;99.90;;;;;;5108277;28;20104;-86
2022/08/21 12:23:58;;;;;;;7.43;2.10;;;31.50;99.90;;;;;;5089539;28;20113;-87
2022/08/21 12:27:12;;;;;;;8.10;2.13;;;30.30;99.90;;;;;;5118268;28;20052;-85
2022/08/21 12:30:09;;;;;;;4.82;1.83;;;30.80;99.90;;;;;;5102679;28;20044;-85
2022/08/21 12:33:32;;;;;;;3.58;2.22;;;30.40;99.90;;;;;;5097807;28;20450;-84
2022/08/21 12:36:25;;;;;;;4.35;2.25;;;29.50;99.90;;;;;;5110758;28;20365;-87
2022/08/21 12:39:19;;;;;;;5.57;2.20;;;29.20;99.90;;;;;;5097185;28;20489;-85
2022/08/21 12:42:19;;;;;;;5.20;2.30;;;28.70;99.90;;;;;;5106644;28;20047;-84
2022/08/21 12:45:26;;;;;;;4.90;2.38;;;28.20;99.90;;;;;;5086433;28;20051;-85
2022/08/21 12:48:35;;;;;;;6.63;2.38;;;27.80;99.90;;;;;;5113119;28;20114;-86
2022/08/21 12:51:24;;;;;;;4.65;2.60;;;28.00;99.90;;;;;;5104714;28;20052;-86
2022/08/21 12:54:32;;;;;;;5.68;2.55;;;28.20;99.90;;;;;;5118314;27;20035;-87
2022/08/21 12:57:25;;;;;;;3.85;1.80;;;28.30;99.90;;;;;;5101659;28;20039;-85
2022/08/21 13:00:22;;;;;;;10.43;2.40;;;28.20;99.90;;;;;;5105454;27;20032;-84
2022/08/21 13:03:14;;;;;;;5.18;2.42;;;28.40;99.90;;;;;;5102336;28;20077;-86
2022/08/21 13:06:04;;;;;;;6.00;2.28;;;30.60;99.90;;;;;;5108743;28;20051;-85
2022/08/21 13:08:59;;;;;;;2.78;1.88;;;32.10;99.90;;;;;;5094838;28;20101;-85
2022/08/21 13:11:48;;;;;;;4.05;2.17;;;33.40;99.90;;;;;;5103954;28;20493;-86
2022/08/21 13:15:03;;;;;;;5.30;2.10;;;32.70;99.90;;;;;;5109805;28;20039;-86
2022/08/21 13:18:01;;;;;;;7.65;2.33;;;32.00;99.90;;;;;;5095378;28;20044;-87
2022/08/21 13:20:52;;;;;;;6.43;2.50;;;30.50;99.90;;;;;;5111636;27;20043;-90
2022/08/21 13:23:39;;;;;;;4.18;2.08;;;29.40;99.90;;;;;;5086354;28;20044;-88
2022/08/21 13:26:27;;;;;;;4.38;2.10;;;28.60;99.90;;;;;;5099776;28;20051;-87
2022/08/21 13:29:17;;;;;;;4.30;2.25;;;28.30;99.90;;;;;;5123334;27;20326;-88
2022/08/21 13:32:21;;;;;;;4.15;2.30;;;28.00;99.90;;;;;;5111067;28;20051;-87
2022/08/21 13:35:21;;;;;;;5.45;2.30;;;27.50;99.90;;;;;;5114641;27;20047;-86
2022/08/21 13:38:08;;;;;;;4.57;2.13;;;27.00;99.90;;;;;;5117392;28;20349;-87
2022/08/21 13:41:04;;;;;;;4.93;2.55;;;26.70;99.90;;;;;;5134170;28;20042;-84
2022/08/21 13:43:59;;;;;;;4.78;2.67;;;26.70;99.90;;;;;;5115038;28;20066;-88
2022/08/21 13:46:48;;;;;;;5.93;2.22;;;27.00;99.90;;;;;;5109539;28;20036;-87
2022/08/21 13:49:45;;;;;;;7.18;2.35;;;27.20;99.90;;;;;;5124338;28;20047;-88
2022/08/21 13:52:32;;;;;;;8.10;2.55;;;27.30;99.90;;;;;;5115883;27;20075;-89
2022/08/21 13:55:19;;;;;;;5.68;2.40;;;27.20;99.90;;;;;;5107672;28;20036;-89
2022/08/21 13:58:08;;;;;;;4.60;2.28;;;27.00;99.90;;;;;;5122382;27;20031;-89
2022/08/21 14:00:57;;;;;;;4.90;2.55;;;26.70;99.90;;;;;;5082447;28;20051;-89
2022/08/21 14:03:47;;;;;;;5.72;2.75;;;26.40;99.90;;;;;;5116090;27;20047;-89
2022/08/21 14:06:37;;;;;;;4.18;2.42;;;26.30;99.90;;;;;;5104456;28;20051;-86
2022/08/21 14:09:34;;;;;;;8.48;2.97;;;26.20;99.90;;;;;;5098946;27;20125;-86
2022/08/21 14:12:54;;;;;;;5.93;2.47;;;26.10;99.90;;;;;;5107654;28;20118;-87
2022/08/21 14:15:41;;;;;;;6.70;2.47;;;26.30;99.90;;;;;;5099330;28;20051;-87
2022/08/21 14:18:29;;;;;;;5.60;2.53;;;26.90;99.90;;;;;;5101729;27;20040;-87
2022/08/21 14:21:28;;;;;;;4.75;2.22;;;27.60;99.90;;;;;;5094168;28;20047;-86
2022/08/21 14:24:28;;;;;;;4.75;2.25;;;29.00;99.90;;;;;;5115494;27;20451;-86
2022/08/21 14:27:19;;;;;;;5.68;2.50;;;29.40;99.90;;;;;;5088364;28;20043;-89
2022/08/21 14:30:18;;;;;;;5.20;2.20;;;30.40;99.90;;;;;;5102450;28;20055;-87
2022/08/21 14:33:18;;;;;;;4.10;2.25;;;32.00;99.90;;;;;;5086678;28;20089;-89
2022/08/21 14:36:06;;;;;;;6.40;2.60;;;33.40;99.90;;;;;;5115862;27;20112;-86
2022/08/21 14:38:53;;;;;;;5.32;2.22;;;34.30;99.90;;;;;;5109201;28;20071;-85
2022/08/21 14:41:42;;;;;;;5.30;1.85;;;34.80;99.90;;;;;;5113624;28;20412;-86
2022/08/21 14:44:29;;;;;;;5.80;2.30;;;35.40;99.90;;;;;;5113450;27;20067;-86
2022/08/21 14:47:24;;;;;;;5.18;2.40;;;35.60;99.90;;;;;;5106387;28;20381;-83
2022/08/21 14:50:15;;;;;;;2.92;2.08;;;35.60;99.90;;;;;;5109066;27;20043;-88
2022/08/21 14:53:05;;;;;;;4.47;2.20;;;35.70;99.90;;;;;;5114683;28;20044;-86
2022/08/21 14:56:06;;;;;;;4.88;2.25;;;34.90;99.90;;;;;;5100644;28;20040;-87
2022/08/21 14:59:05;;;;;;;6.80;2.28;;;35.20;99.90;;;;;;5097012;28;20040;-85
2022/08/21 15:01:56;;;;;;;4.35;1.98;;;35.50;99.90;;;;;;5104080;28;20058;-83
2022/08/21 15:04:43;;;;;;;4.68;2.13;;;34.90;99.90;;;;;;5111872;27;20134;-84
2022/08/21 15:07:30;;;;;;;2.25;1.80;;;35.00;99.90;;;;;;5108160;28;20055;-83
2022/08/21 15:10:17;;;;;;;5.00;2.20;;;34.70;99.90;;;;;;5103277;28;20036;-82